Time;durP1;ratioP1;P1;durP2;ratioP2;P2;SDS_P1;SDS_P2;PMS_P1;PMS_P2;Temp;Humidity;BMP_temperature;BMP_pressure;BME280_temperature;BME280_humidity;BME280_pressure;Samples;Min_cycle;Max_cycle;Signal;HPM_P1;HPM_P2
2020/12/01 00:00:09;;;;;;;68.10;34.13;;;;;;;-0.07;100.00;99610.44;2081524;28;20402;-73
2020/12/01 00:01:11;;;;;;;65.07;34.20;;;;;;;-0.13;100.00;99606.84;2087066;28;20227;-73
2020/12/01 00:02:12;;;;;;;68.45;34.63;;;;;;;-0.14;100.00;99605.25;2089130;28;20309;-73
2020/12/01 00:03:13;;;;;;;66.85;34.13;;;;;;;-0.08;100.00;99608.84;2089221;28;20288;-73
2020/12/01 00:04:14;;;;;;;64.07;33.70;;;;;;;-0.18;100.00;99600.63;2080931;28;20231;-73
2020/12/01 00:05:17;;;;;;;74.22;34.85;;;;;;;-0.20;100.00;99606.09;2080861;28;20310;-73
2020/12/01 00:06:18;;;;;;;69.97;33.45;;;;;;;-0.10;100.00;99609.03;2089205;28;20219;-73
2020/12/01 00:07:19;;;;;;;71.47;35.63;;;;;;;-0.12;100.00;99611.06;2089701;28;20283;-72
2020/12/01 00:08:20;;;;;;;67.67;34.17;;;;;;;-0.13;100.00;99611.28;2089731;28;20277;-73
2020/12/01 00:09:21;;;;;;;65.50;34.53;;;;;;;-0.16;100.00;99599.41;2089726;28;20222;-73
2020/12/01 00:10:23;;;;;;;71.00;34.57;;;;;;;-0.11;100.00;99604.81;2089407;28;20719;-71
2020/12/01 00:11:23;;;;;;;56.80;31.90;;;;;;;-0.05;100.00;99609.22;2088845;28;20310;-73
2020/12/01 00:12:25;;;;;;;69.40;33.47;;;;;;;-0.10;100.00;99610.84;2080980;28;20234;-73
2020/12/01 00:13:26;;;;;;;67.63;34.10;;;;;;;-0.12;100.00;99602.41;2080682;28;20235;-71
2020/12/01 00:14:27;;;;;;;65.37;32.50;;;;;;;-0.11;100.00;99604.81;2080498;28;20328;-71
2020/12/01 00:15:29;;;;;;;62.00;33.80;;;;;;;-0.22;100.00;99597.63;2088218;28;20214;-73
2020/12/01 00:16:30;;;;;;;67.20;34.60;;;;;;;-0.17;100.00;99605.69;2089000;28;20622;-73
2020/12/01 00:17:31;;;;;;;67.45;35.75;;;;;;;-0.18;100.00;99600.63;2088852;28;20681;-71
2020/12/01 00:18:32;;;;;;;63.00;34.03;;;;;;;-0.18;100.00;99604.03;2089113;28;20573;-72
2020/12/01 00:19:33;;;;;;;65.68;34.70;;;;;;;-0.16;100.00;99606.47;2089840;28;20272;-73
2020/12/01 00:20:34;;;;;;;68.23;36.37;;;;;;;-0.25;100.00;99597.25;2088905;28;20284;-71
2020/12/01 00:21:35;;;;;;;75.95;34.85;;;;;;;-0.18;100.00;99598.81;2088986;28;20260;-73
2020/12/01 00:22:37;;;;;;;67.77;34.17;;;;;;;-0.19;100.00;99601.63;2089073;28;20227;-73
2020/12/01 00:23:38;;;;;;;64.00;34.00;;;;;;;-0.19;100.00;99601.63;2082303;28;20769;-73
2020/12/01 00:24:39;;;;;;;65.10;34.50;;;;;;;-0.18;100.00;99604.03;2081307;28;20586;-73
2020/12/01 00:25:40;;;;;;;62.67;33.28;;;;;;;-0.22;100.00;99602.88;2081402;28;20227;-73
2020/12/01 00:26:41;;;;;;;64.60;34.50;;;;;;;-0.18;100.00;99606.66;2081341;28;20219;-72
2020/12/01 00:27:42;;;;;;;69.70;34.35;;;;;;;-0.20;100.00;99603.47;2080510;28;20322;-71
2020/12/01 00:28:44;;;;;;;66.30;34.27;;;;;;;-0.19;100.00;99607.69;2080645;28;20234;-73
2020/12/01 00:29:45;;;;;;;66.10;34.88;;;;;;;-0.18;100.00;99609.28;2072458;28;20282;-73
2020/12/01 00:30:47;;;;;;;64.77;33.53;;;;;;;-0.19;100.00;99602.44;2080709;28;20216;-73
2020/12/01 00:31:48;;;;;;;64.75;33.58;;;;;;;-0.22;100.00;99605.50;2081263;28;20729;-73
2020/12/01 00:32:50;;;;;;;61.90;33.63;;;;;;;-0.22;100.00;99608.13;2081446;28;20599;-72
2020/12/01 00:33:50;;;;;;;61.58;33.85;;;;;;;-0.19;100.00;99610.31;2080549;28;20692;-72
2020/12/01 00:34:52;;;;;;;64.50;33.50;;;;;;;-0.18;100.00;99604.03;2072571;28;20224;-73
2020/12/01 00:35:53;;;;;;;63.10;33.47;;;;;;;-0.17;100.00;99607.50;2086524;28;20226;-71
2020/12/01 00:36:54;;;;;;;59.53;32.25;;;;;;;-0.17;100.00;99610.91;2089584;28;20226;-72
2020/12/01 00:37:55;;;;;;;67.13;34.25;;;;;;;-0.28;100.00;99588.78;2089587;28;20222;-73
2020/12/01 00:38:56;;;;;;;64.93;33.90;;;;;;;-0.19;100.00;99609.50;2088649;28;20269;-73
2020/12/01 00:39:57;;;;;;;65.53;33.25;;;;;;;-0.17;100.00;99616.16;2080555;28;20614;-72
2020/12/01 00:40:58;;;;;;;58.77;31.77;;;;;;;-0.16;100.00;99604.66;2088730;28;20223;-73
2020/12/01 00:41:59;;;;;;;55.42;30.42;;;;;;;-0.13;100.00;99612.09;2089466;28;20215;-73
2020/12/01 00:43:00;;;;;;;63.27;32.37;;;;;;;-0.13;100.00;99616.53;2089513;28;20681;-73
2020/12/01 00:44:01;;;;;;;61.90;31.38;;;;;;;-0.13;100.00;99606.03;2089530;28;20226;-73
2020/12/01 00:45:05;;;;;;;62.72;31.08;;;;;;;-0.15;100.00;99595.78;2088686;28;20233;-73
2020/12/01 00:46:06;;;;;;;57.13;31.98;;;;;;;-0.07;100.00;99607.81;2080792;28;20242;-73
2020/12/01 00:47:08;;;;;;;59.45;31.08;;;;;;;-0.09;100.00;99613.28;2079855;28;20231;-73
2020/12/01 00:48:09;;;;;;;58.67;31.20;;;;;;;0.03;100.00;99609.97;2088578;28;20260;-73
2020/12/01 00:49:10;;;;;;;60.63;31.20;;;;;;;-0.05;100.00;99603.16;2080334;28;20227;-73
2020/12/01 00:50:15;;;;;;;57.40;31.40;;;;;;;-0.11;100.00;99607.44;2080279;28;20228;-73
2020/12/01 00:51:16;;;;;;;58.17;31.55;;;;;;;-0.12;100.00;99608.44;2088621;28;20762;-73
2020/12/01 00:52:18;;;;;;;57.78;31.65;;;;;;;-0.10;100.00;99606.41;2088809;28;20702;-73
2020/12/01 00:53:19;;;;;;;58.08;31.02;;;;;;;-0.13;100.00;99606.03;2089357;28;20223;-73
2020/12/01 00:54:21;;;;;;;57.55;31.40;;;;;;;-0.18;100.00;99598.81;2088652;28;20218;-73
2020/12/01 00:55:22;;;;;;;59.77;33.70;;;;;;;-0.21;100.00;99595.81;2073756;28;20312;-73
2020/12/01 00:56:23;;;;;;;62.55;32.78;;;;;;;-0.28;100.00;99598.47;2078833;28;20630;-73
2020/12/01 00:57:25;;;;;;;55.90;31.10;;;;;;;-0.26;100.00;99596.47;2084182;28;20224;-73
2020/12/01 00:58:26;;;;;;;55.70;31.35;;;;;;;-0.35;100.00;99580.19;2081107;28;20563;-73
2020/12/01 00:59:54;;;;;;;59.97;31.98;;;;;;;-0.27;100.00;99600.06;2082126;28;20322;-73
2020/12/01 01:01:03;;;;;;;62.58;31.83;;;;;;;-0.36;100.00;99588.22;2080321;28;20232;-73
2020/12/01 01:02:06;;;;;;;55.97;31.95;;;;;;;-0.37;100.00;99594.50;2080371;28;20225;-73
2020/12/01 01:03:07;;;;;;;62.75;33.47;;;;;;;-0.34;100.00;99600.13;2086052;28;20720;-73
2020/12/01 01:04:08;;;;;;;55.43;31.00;;;;;;;-0.36;100.00;99593.47;2080167;28;20231;-73
2020/12/01 01:05:09;;;;;;;60.22;31.20;;;;;;;-0.44;100.00;99584.03;2088716;28;20305;-73
2020/12/01 01:06:10;;;;;;;55.58;31.10;;;;;;;-0.40;100.00;99589.69;2088599;28;20237;-73
2020/12/01 01:07:11;;;;;;;56.40;31.48;;;;;;;-0.45;100.00;99592.94;2089168;28;20247;-73
2020/12/01 01:08:13;;;;;;;58.88;31.40;;;;;;;-0.43;100.00;99580.44;2089307;28;20242;-73
2020/12/01 01:09:15;;;;;;;62.35;31.35;;;;;;;-0.41;100.00;99588.09;2089211;28;20697;-73
2020/12/01 01:10:18;;;;;;;53.75;30.13;;;;;;;-0.37;100.00;99584.81;2089155;28;20229;-73
2020/12/01 01:11:26;;;;;;;58.75;30.90;;;;;;;-0.43;100.00;99575.19;2088649;28;20700;-73
2020/12/01 01:12:27;;;;;;;55.03;30.15;;;;;;;-0.39;100.00;99586.84;2088205;28;20243;-73
2020/12/01 01:13:28;;;;;;;58.40;31.35;;;;;;;-0.41;100.00;99582.84;2088355;28;20260;-73
2020/12/01 01:14:29;;;;;;;53.63;29.40;;;;;;;-0.40;100.00;99589.69;2088554;28;20276;-73
2020/12/01 01:15:32;;;;;;;56.15;31.23;;;;;;;-0.43;100.00;99590.94;2089156;28;20255;-73
2020/12/01 01:16:33;;;;;;;60.10;33.15;;;;;;;-0.50;100.00;99573.63;2088651;28;20255;-73
2020/12/01 01:17:35;;;;;;;59.53;31.75;;;;;;;-0.47;100.00;99581.06;2080387;28;20764;-73
2020/12/01 01:18:36;;;;;;;53.97;32.03;;;;;;;-0.47;100.00;99581.06;2088238;28;20330;-73
2020/12/01 01:19:37;;;;;;;58.55;30.73;;;;;;;-0.47;100.00;99575.81;2079765;28;20297;-73
2020/12/01 01:20:38;;;;;;;58.40;30.30;;;;;;;-0.49;100.00;99577.84;2088518;28;20257;-72
2020/12/01 01:21:40;;;;;;;57.72;32.10;;;;;;;-0.51;100.00;99577.25;2089243;28;20256;-73
2020/12/01 01:22:41;;;;;;;56.47;32.55;;;;;;;-0.52;100.00;99573.00;2089244;28;20665;-73
2020/12/01 01:23:42;;;;;;;55.42;31.95;;;;;;;-0.58;100.00;99572.06;2089163;28;20314;-73
2020/12/01 01:24:43;;;;;;;54.77;29.23;;;;;;;-0.53;100.00;99572.22;2088369;28;20218;-73
2020/12/01 01:25:44;;;;;;;55.53;32.05;;;;;;;-0.53;100.00;99574.84;2080314;28;20314;-73
2020/12/01 01:26:49;;;;;;;52.67;29.87;;;;;;;-0.55;100.00;99571.63;2088377;28;20223;-73
2020/12/01 01:27:51;;;;;;;52.00;30.90;;;;;;;-0.57;100.00;99571.84;2089094;28;20791;-73
2020/12/01 01:28:52;;;;;;;55.38;31.15;;;;;;;-0.57;100.00;99569.22;2088018;28;20222;-73
2020/12/01 01:29:53;;;;;;;61.75;31.17;;;;;;;-0.59;100.00;99566.00;2088246;28;20310;-73
2020/12/01 01:30:54;;;;;;;57.97;30.40;;;;;;;-0.61;100.00;99557.56;2088221;28;20230;-73
2020/12/01 01:31:56;;;;;;;51.25;29.60;;;;;;;-0.64;100.00;99555.34;2088214;28;20276;-73
2020/12/01 01:32:58;;;;;;;55.60;31.20;;;;;;;-0.63;100.00;99559.56;2088402;28;20261;-73
2020/12/01 01:33:59;;;;;;;56.63;29.05;;;;;;;-0.65;100.00;99564.22;2089207;28;20314;-73
2020/12/01 01:35:00;;;;;;;61.40;30.00;;;;;;;-0.68;100.00;99558.63;2088330;28;20681;-73
2020/12/01 01:36:01;;;;;;;58.10;29.55;;;;;;;-0.71;100.00;99557.19;2088349;28;20226;-73
2020/12/01 01:37:03;;;;;;;53.00;28.33;;;;;;;-0.74;100.00;99562.06;2089180;28;20214;-73
2020/12/01 01:38:05;;;;;;;58.47;30.30;;;;;;;-0.75;100.00;99565.69;2088251;28;20223;-73
2020/12/01 01:39:07;;;;;;;55.03;30.58;;;;;;;-0.80;100.00;99558.47;2080354;28;20234;-73
2020/12/01 01:40:12;;;;;;;55.60;30.33;;;;;;;-0.80;100.00;99563.69;2087953;28;20681;-73
2020/12/01 01:41:14;;;;;;;57.33;29.92;;;;;;;-0.83;100.00;99558.88;2088510;28;20245;-74
2020/12/01 01:42:15;;;;;;;53.75;30.60;;;;;;;-0.86;100.00;99560.13;2088356;28;20318;-73
2020/12/01 01:43:16;;;;;;;52.90;28.17;;;;;;;-0.89;100.00;99563.13;2088274;28;20229;-73
2020/12/01 01:44:23;;;;;;;54.47;28.92;;;;;;;-0.94;100.00;99551.69;2080380;28;20257;-73
2020/12/01 01:45:41;;;;;;;53.10;28.23;;;;;;;-1.04;100.00;99544.28;2080689;28;20309;-73
2020/12/01 01:46:44;;;;;;;54.75;29.98;;;;;;;-0.96;100.00;99558.94;2087846;28;20326;-73
2020/12/01 01:47:46;;;;;;;56.08;28.60;;;;;;;-1.05;100.00;99547.09;2088899;28;20586;-73
2020/12/01 01:48:47;;;;;;;58.60;30.77;;;;;;;-1.11;100.00;99545.31;2087996;28;20305;-73
2020/12/01 01:49:52;;;;;;;54.70;30.70;;;;;;;-1.09;100.00;99543.31;2088126;28;20215;-73
2020/12/01 01:51:00;;;;;;;59.20;31.17;;;;;;;-1.05;100.00;99552.34;2081333;28;20227;-73
2020/12/01 01:52:02;;;;;;;55.65;31.17;;;;;;;-1.14;100.00;99541.28;2080123;28;20305;-73
2020/12/01 01:53:03;;;;;;;56.45;30.40;;;;;;;-1.18;100.00;99535.69;2079873;28;20227;-73
2020/12/01 01:54:04;;;;;;;54.23;30.63;;;;;;;-1.14;100.00;99549.13;2080041;28;20219;-73
2020/12/01 01:55:08;;;;;;;56.65;29.77;;;;;;;-1.14;100.00;99547.31;2080549;28;20223;-73
2020/12/01 01:56:11;;;;;;;52.40;29.20;;;;;;;-1.20;100.00;99536.91;2086809;28;20231;-73
2020/12/01 01:57:12;;;;;;;54.42;29.50;;;;;;;-1.16;100.00;99538.88;2088848;28;20230;-73
2020/12/01 01:58:15;;;;;;;53.77;29.93;;;;;;;-1.14;100.00;99546.53;2088904;28;20226;-73
2020/12/01 01:59:16;;;;;;;51.83;30.15;;;;;;;-1.17;100.00;99545.13;2088969;28;20468;-73
2020/12/01 02:00:50;;;;;;;54.15;30.33;;;;;;;-1.18;100.00;99546.16;2088269;28;20727;-73
2020/12/01 02:01:52;;;;;;;49.20;27.83;;;;;;;-1.19;100.00;99541.94;2083772;28;20227;-73
2020/12/01 02:02:53;;;;;;;51.90;29.80;;;;;;;-1.27;100.00;99536.91;2087801;28;20222;-73
2020/12/01 02:03:58;;;;;;;53.10;29.40;;;;;;;-1.39;100.00;99522.88;2088234;28;20227;-73
2020/12/01 02:04:59;;;;;;;54.63;28.42;;;;;;;-1.25;100.00;99539.31;2087980;28;20317;-73
2020/12/01 02:06:00;;;;;;;47.80;27.70;;;;;;;-1.34;100.00;99523.06;2080040;28;20220;-73
2020/12/01 02:07:04;;;;;;;49.08;26.83;;;;;;;-1.26;100.00;99537.72;2088125;28;20293;-73
2020/12/01 02:08:04;;;;;;;51.28;27.88;;;;;;;-1.29;100.00;99544.19;2088764;28;20577;-73
2020/12/01 02:09:09;;;;;;;54.23;28.40;;;;;;;-1.37;100.00;99526.09;2087975;28;20288;-73
2020/12/01 02:10:10;;;;;;;51.28;29.55;;;;;;;-1.34;100.00;99541.38;2087623;28;20619;-73
2020/12/01 02:11:12;;;;;;;50.80;27.65;;;;;;;-1.37;100.00;99535.75;2088241;28;20234;-73
2020/12/01 02:12:15;;;;;;;53.45;28.85;;;;;;;-1.41;100.00;99530.13;2088024;28;20754;-73
2020/12/01 02:13:17;;;;;;;50.75;28.08;;;;;;;-1.50;100.00;99519.06;2088856;28;20724;-73
2020/12/01 02:14:20;;;;;;;48.88;28.98;;;;;;;-1.46;100.00;99535.97;2088228;28;20648;-73
2020/12/01 02:15:22;;;;;;;50.10;27.50;;;;;;;-1.46;100.00;99535.97;2088087;28;20245;-73
2020/12/01 02:16:22;;;;;;;44.15;27.10;;;;;;;-1.49;100.00;99533.75;2088431;28;20234;-73
2020/12/01 02:17:26;;;;;;;51.57;27.57;;;;;;;-1.54;100.00;99530.97;2087976;28;20231;-73
2020/12/01 02:18:29;;;;;;;44.78;27.58;;;;;;;-1.57;100.00;99530.56;2087977;28;20810;-73
2020/12/01 02:19:31;;;;;;;50.53;27.35;;;;;;;-1.61;100.00;99529.38;2088686;28;20223;-73
2020/12/01 02:20:36;;;;;;;48.70;27.48;;;;;;;-1.60;100.00;99526.56;2088836;28;20218;-73
2020/12/01 02:21:39;;;;;;;47.63;27.88;;;;;;;-1.62;100.00;99538.25;2088413;28;20249;-74
2020/12/01 02:22:41;;;;;;;50.13;27.58;;;;;;;-1.69;100.00;99524.38;2088655;28;20305;-73
2020/12/01 02:23:42;;;;;;;49.50;28.55;;;;;;;-1.68;100.00;99533.81;2088731;28;20226;-73
2020/12/01 02:24:44;;;;;;;48.67;26.23;;;;;;;-1.74;100.00;99522.34;2088815;28;20305;-73
2020/12/01 02:25:45;;;;;;;46.97;27.27;;;;;;;-1.76;100.00;99533.03;2088722;28;20221;-73
2020/12/01 02:26:49;;;;;;;47.33;27.50;;;;;;;-1.76;100.00;99521.75;2087960;28;20242;-73
2020/12/01 02:27:51;;;;;;;43.85;26.98;;;;;;;-1.78;100.00;99532.44;2088082;28;20356;-73
2020/12/01 02:28:52;;;;;;;47.53;27.15;;;;;;;-1.78;100.00;99529.00;2081537;28;20261;-73
2020/12/01 02:29:56;;;;;;;42.70;26.50;;;;;;;-1.81;100.00;99530.22;2079604;28;20231;-73
2020/12/01 02:30:56;;;;;;;46.72;26.45;;;;;;;-1.84;100.00;99530.63;2079744;28;23431;-73
2020/12/01 02:31:58;;;;;;;47.87;27.23;;;;;;;-1.89;100.00;99519.19;2080510;28;20615;-73
2020/12/01 02:32:59;;;;;;;46.03;27.17;;;;;;;-1.85;100.00;99528.22;2080406;28;20227;-73
2020/12/01 02:34:00;;;;;;;44.17;25.93;;;;;;;-1.90;100.00;99525.41;2080416;28;20223;-73
2020/12/01 02:35:03;;;;;;;51.80;27.13;;;;;;;-1.91;100.00;99529.00;2080402;28;20284;-73
2020/12/01 02:36:04;;;;;;;49.42;27.60;;;;;;;-1.96;100.00;99524.41;2079724;28;20227;-73
2020/12/01 02:37:05;;;;;;;44.40;25.55;;;;;;;-1.98;100.00;99525.63;2079642;28;20311;-73
2020/12/01 02:38:06;;;;;;;43.83;25.13;;;;;;;-2.01;100.00;99518.97;2079148;28;20224;-73
2020/12/01 02:39:08;;;;;;;45.40;25.10;;;;;;;-2.01;100.00;99519.78;2077589;28;20230;-73
2020/12/01 02:40:11;;;;;;;47.17;25.67;;;;;;;-2.15;100.00;99493.88;2079664;28;20223;-73
2020/12/01 02:41:12;;;;;;;43.25;25.15;;;;;;;-1.91;100.00;99527.22;2079956;28;20577;-73
2020/12/01 02:42:18;;;;;;;44.30;26.17;;;;;;;-1.94;100.00;99527.63;2087913;28;20229;-73
2020/12/01 02:43:18;;;;;;;42.45;25.20;;;;;;;-1.97;100.00;99524.63;2088061;28;20222;-73
2020/12/01 02:44:20;;;;;;;45.20;25.40;;;;;;;-1.98;100.00;99523.00;2087995;28;20227;-73
2020/12/01 02:45:21;;;;;;;41.17;25.38;;;;;;;-1.95;100.00;99538.28;2088660;28;20231;-73
2020/12/01 02:46:23;;;;;;;41.88;25.90;;;;;;;-1.97;100.00;99530.66;2088079;28;20250;-72
2020/12/01 02:47:25;;;;;;;40.92;25.52;;;;;;;-1.95;100.00;99526.00;2087952;28;20241;-73
2020/12/01 02:48:26;;;;;;;42.10;24.98;;;;;;;-1.98;100.00;99523.81;2087730;28;20581;-73
2020/12/01 02:49:27;;;;;;;48.70;26.08;;;;;;;-1.93;100.00;99531.84;2088757;28;20231;-72
2020/12/01 02:50:28;;;;;;;47.43;26.03;;;;;;;-1.98;100.00;99529.03;2087958;28;20222;-73
2020/12/01 02:51:29;;;;;;;39.22;23.38;;;;;;;-1.94;100.00;99535.47;2087923;28;20219;-73
2020/12/01 02:52:30;;;;;;;45.67;25.07;;;;;;;-1.96;100.00;99532.25;2088689;28;20223;-73
2020/12/01 02:53:31;;;;;;;48.55;25.23;;;;;;;-2.02;100.00;99522.59;2088487;28;20222;-73
2020/12/01 02:54:32;;;;;;;41.97;24.67;;;;;;;-1.92;100.00;99527.41;2088647;28;20268;-73
2020/12/01 02:55:33;;;;;;;39.83;24.88;;;;;;;-1.93;100.00;99534.44;2088115;28;20310;-73
2020/12/01 02:56:34;;;;;;;41.80;24.70;;;;;;;-1.96;100.00;99528.84;2087856;28;20222;-72
2020/12/01 02:57:36;;;;;;;42.72;24.77;;;;;;;-2.00;100.00;99531.03;2088083;28;20298;-73
2020/12/01 02:58:37;;;;;;;42.38;24.50;;;;;;;-2.05;100.00;99520.41;2073348;28;20239;-73
2020/12/01 02:59:38;;;;;;;46.22;25.73;;;;;;;-2.13;100.00;99508.34;2079636;28;20676;-73
2020/12/01 03:00:39;;;;;;;39.67;23.67;;;;;;;-2.07;100.00;99512.75;2079389;28;20262;-73
2020/12/01 03:01:40;;;;;;;41.95;25.52;;;;;;;-1.94;100.00;99518.97;2079527;28;20763;-73
2020/12/01 03:02:41;;;;;;;39.53;24.13;;;;;;;-1.87;100.00;99525.81;2080338;28;20231;-73
2020/12/01 03:03:42;;;;;;;38.33;24.45;;;;;;;-1.88;100.00;99521.59;2080366;28;20284;-73
2020/12/01 03:04:43;;;;;;;42.80;25.13;;;;;;;-1.78;100.00;99508.88;2080331;28;20277;-73
2020/12/01 03:05:44;;;;;;;42.38;23.67;;;;;;;-1.81;100.00;99513.75;2080354;28;20280;-73
2020/12/01 03:06:45;;;;;;;39.37;24.00;;;;;;;-1.84;100.00;99522.78;2079555;28;20253;-73
2020/12/01 03:07:46;;;;;;;34.83;22.63;;;;;;;-1.91;100.00;99511.53;2079790;28;20227;-73
2020/12/01 03:08:48;;;;;;;40.80;25.13;;;;;;;-1.88;100.00;99524.19;2071003;28;20219;-73
2020/12/01 03:09:49;;;;;;;40.88;23.52;;;;;;;-1.87;100.00;99519.78;2079535;28;20260;-73
2020/12/01 03:10:50;;;;;;;42.13;24.93;;;;;;;-1.84;100.00;99524.59;2079451;28;20224;-73
2020/12/01 03:11:51;;;;;;;37.28;23.10;;;;;;;-1.88;100.00;99516.34;2071257;28;20255;-73
2020/12/01 03:12:53;;;;;;;37.17;23.23;;;;;;;-1.93;100.00;99516.16;2085357;28;20222;-73
2020/12/01 03:13:54;;;;;;;37.10;22.70;;;;;;;-2.05;100.00;99504.72;2088506;28;20309;-73
2020/12/01 03:14:55;;;;;;;38.23;23.93;;;;;;;-2.16;100.00;99503.53;2088339;28;20225;-73
2020/12/01 03:16:01;;;;;;;42.20;25.20;;;;;;;-2.00;100.00;99525.81;2087934;28;20752;-73
2020/12/01 03:17:02;;;;;;;42.20;23.02;;;;;;;-2.04;100.00;99522.81;2080176;28;20582;-73
2020/12/01 03:18:03;;;;;;;43.20;23.05;;;;;;;-2.04;100.00;99519.38;2087636;28;20310;-73
2020/12/01 03:19:05;;;;;;;36.03;22.07;;;;;;;-2.09;100.00;99517.38;2088442;28;20225;-73
2020/12/01 03:20:06;;;;;;;36.78;23.48;;;;;;;-2.08;100.00;99516.38;2088576;28;20673;-73
2020/12/01 03:21:07;;;;;;;38.70;22.67;;;;;;;-2.09;100.00;99521.78;2088188;28;20658;-73
2020/12/01 03:22:08;;;;;;;35.80;22.25;;;;;;;-2.12;100.00;99516.97;2088448;28;20314;-73
2020/12/01 03:23:09;;;;;;;39.00;22.90;;;;;;;-2.08;100.00;99521.63;2087637;28;20222;-72
2020/12/01 03:24:10;;;;;;;35.67;21.83;;;;;;;-2.07;100.00;99522.41;2087554;28;20238;-72
2020/12/01 03:25:11;;;;;;;37.30;23.70;;;;;;;-2.09;100.00;99514.75;2087830;28;20227;-72
2020/12/01 03:26:15;;;;;;;37.63;22.27;;;;;;;-2.11;100.00;99511.53;2088394;28;20283;-72
2020/12/01 03:27:16;;;;;;;36.55;22.55;;;;;;;-2.10;100.00;99514.97;2088387;28;20305;-72
2020/12/01 03:28:18;;;;;;;34.35;22.80;;;;;;;-2.15;100.00;99507.75;2087681;28;20257;-73
2020/12/01 03:29:19;;;;;;;38.85;23.15;;;;;;;-2.10;100.00;99514.97;2087719;28;20219;-72
2020/12/01 03:30:20;;;;;;;34.65;22.20;;;;;;;-2.08;100.00;99512.97;2088321;28;20640;-72
2020/12/01 03:31:21;;;;;;;41.13;23.67;;;;;;;-2.15;100.00;99496.47;2087696;28;20227;-72
2020/12/01 03:32:23;;;;;;;33.60;22.27;;;;;;;-2.09;100.00;99513.94;2078863;28;20292;-72
2020/12/01 03:33:25;;;;;;;33.15;21.45;;;;;;;-2.15;100.00;99505.13;2087576;28;20726;-72
2020/12/01 03:34:26;;;;;;;36.95;23.00;;;;;;;-2.09;100.00;99511.34;2087672;28;20223;-72
2020/12/01 03:35:27;;;;;;;39.73;22.13;;;;;;;-2.12;100.00;99514.38;2087700;28;20233;-72
2020/12/01 03:36:28;;;;;;;37.47;22.75;;;;;;;-2.21;100.00;99503.31;2087911;28;20604;-72
2020/12/01 03:37:29;;;;;;;41.30;23.40;;;;;;;-2.15;100.00;99506.94;2087759;28;20253;-72
2020/12/01 03:38:30;;;;;;;38.45;22.95;;;;;;;-2.16;100.00;99505.34;2088463;28;20318;-72
2020/12/01 03:39:32;;;;;;;33.97;22.10;;;;;;;-2.20;100.00;99504.91;2088352;28;20222;-72
2020/12/01 03:40:32;;;;;;;34.83;22.23;;;;;;;-2.16;100.00;99505.34;2087595;28;20654;-72
2020/12/01 03:41:34;;;;;;;36.57;21.50;;;;;;;-2.13;100.00;99505.72;2087718;28;20218;-73
2020/12/01 03:42:35;;;;;;;32.55;20.48;;;;;;;-2.16;100.00;99500.09;2087655;28;20223;-73
2020/12/01 03:43:37;;;;;;;35.63;23.17;;;;;;;-2.19;100.00;99505.72;2087851;28;20717;-73
2020/12/01 03:44:38;;;;;;;34.08;21.92;;;;;;;-2.20;100.00;99509.34;2087973;28;20227;-73
2020/12/01 03:45:39;;;;;;;33.67;22.10;;;;;;;-2.20;100.00;99510.16;2087501;28;20364;-73
2020/12/01 03:46:41;;;;;;;31.17;21.80;;;;;;;-2.24;100.00;99498.50;2087302;28;20247;-73
2020/12/01 03:47:41;;;;;;;32.42;22.20;;;;;;;-2.30;100.00;99500.09;2087476;28;28081;-72
2020/12/01 03:48:43;;;;;;;33.67;23.23;;;;;;;-2.27;100.00;99501.50;2087868;28;20623;-72
2020/12/01 03:49:43;;;;;;;36.05;22.83;;;;;;;-2.31;100.00;99502.91;2088538;28;20245;-73
2020/12/01 03:50:45;;;;;;;34.97;23.07;;;;;;;-2.29;100.00;99504.31;2089481;28;20237;-73
2020/12/01 03:51:45;;;;;;;30.65;20.85;;;;;;;-2.33;100.00;99497.91;2089885;28;20261;-73
2020/12/01 03:52:47;;;;;;;36.37;23.90;;;;;;;-2.25;100.00;99511.78;2089878;28;20215;-73
2020/12/01 03:53:47;;;;;;;33.80;20.80;;;;;;;-2.24;100.00;99508.16;2089928;28;20253;-73
2020/12/01 03:54:49;;;;;;;34.17;22.50;;;;;;;-2.26;100.00;99513.56;2089949;28;20219;-73
2020/12/01 03:55:50;;;;;;;33.75;22.13;;;;;;;-2.29;100.00;99512.16;2089908;28;20226;-73
2020/12/01 03:56:51;;;;;;;33.38;22.38;;;;;;;-2.39;100.00;99495.28;2089869;28;20728;-73
2020/12/01 03:57:53;;;;;;;39.08;24.15;;;;;;;-2.32;100.00;99502.13;2088719;28;20231;-73
2020/12/01 03:58:55;;;;;;;38.90;21.80;;;;;;;-2.33;100.00;99502.31;2080954;28;20653;-73
2020/12/01 03:59:56;;;;;;;36.88;22.00;;;;;;;-2.25;100.00;99512.56;2080984;28;20309;-72
2020/12/01 04:00:57;;;;;;;32.73;21.63;;;;;;;-2.30;100.00;99510.56;2089042;28;20242;-73
2020/12/01 04:01:58;;;;;;;36.65;22.60;;;;;;;-2.24;100.00;99505.53;2089848;28;20242;-73
2020/12/01 04:02:59;;;;;;;32.13;21.77;;;;;;;-2.16;100.00;99510.56;2089061;28;20223;-73
2020/12/01 04:04:00;;;;;;;36.08;22.92;;;;;;;-2.18;100.00;99508.13;2089045;28;20762;-72
2020/12/01 04:05:01;;;;;;;34.57;21.70;;;;;;;-2.14;100.00;99509.34;2090038;28;20584;-73
2020/12/01 04:06:02;;;;;;;35.47;22.98;;;;;;;-2.16;100.00;99506.13;2089953;28;20626;-72
2020/12/01 04:07:04;;;;;;;34.43;22.57;;;;;;;-2.06;100.00;99514.38;2088924;28;20226;-72
2020/12/01 04:08:07;;;;;;;34.92;22.48;;;;;;;-2.07;100.00;99514.56;2089049;28;20532;-73
2020/12/01 04:09:09;;;;;;;32.03;22.13;;;;;;;-2.07;100.00;99514.56;2088945;28;20234;-73
2020/12/01 04:10:11;;;;;;;32.30;21.08;;;;;;;-2.04;100.00;99514.16;2089049;28;20227;-73
2020/12/01 04:11:12;;;;;;;31.42;21.33;;;;;;;-2.02;100.00;99510.34;2089845;28;20223;-73
2020/12/01 04:12:13;;;;;;;36.15;21.08;;;;;;;-2.03;100.00;99511.34;2089872;28;20310;-73
2020/12/01 04:13:14;;;;;;;33.53;22.37;;;;;;;-2.03;100.00;99515.75;2089217;28;20226;-71
2020/12/01 04:14:16;;;;;;;34.00;21.33;;;;;;;-2.04;100.00;99501.09;2088983;28;20218;-71
2020/12/01 04:15:18;;;;;;;38.38;22.83;;;;;;;-2.04;100.00;99509.72;2089738;28;20314;-73
2020/12/01 04:16:20;;;;;;;37.00;24.08;;;;;;;-2.08;100.00;99503.31;2088903;28;20256;-73
2020/12/01 04:17:21;;;;;;;34.38;23.23;;;;;;;-2.07;100.00;99491.84;2080893;28;20622;-73
2020/12/01 04:18:22;;;;;;;32.80;22.13;;;;;;;-2.08;100.00;99490.25;2080377;28;20235;-73
2020/12/01 04:19:23;;;;;;;33.92;21.05;;;;;;;-2.08;100.00;99499.91;2088915;28;20301;-73
2020/12/01 04:20:24;;;;;;;36.33;22.37;;;;;;;-2.09;100.00;99493.03;2089676;28;20234;-73
2020/12/01 04:21:25;;;;;;;33.22;20.73;;;;;;;-2.10;100.00;99494.06;2089824;28;20230;-73
2020/12/01 04:22:26;;;;;;;33.57;23.13;;;;;;;-2.12;100.00;99502.09;2089579;28;20230;-73
2020/12/01 04:23:27;;;;;;;35.25;22.42;;;;;;;-2.24;100.00;99476.78;2089515;28;20314;-73
2020/12/01 04:24:28;;;;;;;31.70;20.97;;;;;;;-2.15;100.00;99491.25;2089832;28;20215;-73
2020/12/01 04:25:29;;;;;;;32.50;22.95;;;;;;;-2.18;100.00;99489.84;2089816;28;20302;-73
2020/12/01 04:26:31;;;;;;;32.45;21.35;;;;;;;-2.18;100.00;99486.41;2089814;28;20227;-72
2020/12/01 04:27:32;;;;;;;28.70;21.42;;;;;;;-2.17;100.00;99488.84;2089666;28;20250;-73
2020/12/01 04:28:33;;;;;;;32.37;21.10;;;;;;;-2.19;100.00;99490.03;2089703;28;20223;-73
2020/12/01 04:29:35;;;;;;;32.50;22.15;;;;;;;-2.23;100.00;99486.25;2088967;28;20223;-73
2020/12/01 04:30:36;;;;;;;29.80;21.23;;;;;;;-2.29;100.00;99475.56;2080986;28;20310;-73
2020/12/01 04:31:37;;;;;;;31.30;21.85;;;;;;;-2.26;100.00;99484.81;2088632;28;20298;-72
2020/12/01 04:32:38;;;;;;;37.47;23.80;;;;;;;-2.25;100.00;99486.44;2089629;28;20223;-73
2020/12/01 04:33:40;;;;;;;34.42;22.58;;;;;;;-2.20;100.00;99485.81;2089751;28;20624;-72
2020/12/01 04:34:41;;;;;;;33.28;21.10;;;;;;;-2.21;100.00;99479.78;2089736;28;20719;-72
2020/12/01 04:35:42;;;;;;;32.95;22.00;;;;;;;-2.26;100.00;99484.81;2089584;28;20322;-72
2020/12/01 04:36:43;;;;;;;32.70;22.13;;;;;;;-2.23;100.00;99479.19;2089639;28;20222;-73
2020/12/01 04:37:44;;;;;;;31.55;21.58;;;;;;;-2.22;100.00;99485.22;2089601;28;20301;-73
2020/12/01 04:38:45;;;;;;;32.43;20.83;;;;;;;-2.19;100.00;99488.22;2089537;28;20225;-73
2020/12/01 04:39:46;;;;;;;31.90;19.70;;;;;;;-2.20;100.00;99491.03;2089171;28;20313;-73
2020/12/01 04:40:47;;;;;;;31.57;21.43;;;;;;;-2.21;100.00;99482.41;2089026;28;20214;-72